sensor_id;sensor_type;location;lat;lon;timestamp;pressure;altitude;pressure_sealevel;temperature;humidity
52975;BME280;38839;45.186;5.720;2022-10-31T00:00:28;99629.63;;;23.01;49.02
52975;BME280;38839;45.186;5.720;2022-10-31T00:02:54;99630.06;;;22.73;49.71
52975;BME280;38839;45.186;5.720;2022-10-31T00:05:19;99623.84;;;22.72;49.75
52975;BME280;38839;45.186;5.720;2022-10-31T00:07:44;99629.84;;;22.77;49.63
52975;BME280;38839;45.186;5.720;2022-10-31T00:10:10;99618.69;;;22.69;49.88
52975;BME280;38839;45.186;5.720;2022-10-31T00:12:35;99617.50;;;22.56;50.14
52975;BME280;38839;45.186;5.720;2022-10-31T00:15:01;99617.94;;;22.26;51.08
52975;BME280;38839;45.186;5.720;2022-10-31T00:17:26;99619.72;;;22.46;50.57
52975;BME280;38839;45.186;5.720;2022-10-31T00:19:51;99616.69;;;22.93;48.93
52975;BME280;38839;45.186;5.720;2022-10-31T00:22:20;99622.28;;;22.47;50.61
52975;BME280;38839;45.186;5.720;2022-10-31T00:24:45;99617.91;;;22.46;50.34
52975;BME280;38839;45.186;5.720;2022-10-31T00:27:11;99622.97;;;22.53;50.30
52975;BME280;38839;45.186;5.720;2022-10-31T00:29:36;99622.31;;;22.27;50.80
52975;BME280;38839;45.186;5.720;2022-10-31T00:32:02;99615.91;;;22.52;50.27
52975;BME280;38839;45.186;5.720;2022-10-31T00:34:27;99619.44;;;22.52;50.24
52975;BME280;38839;45.186;5.720;2022-10-31T00:36:52;99618.97;;;22.63;49.90
52975;BME280;38839;45.186;5.720;2022-10-31T00:39:18;99618.19;;;22.99;48.95
52975;BME280;38839;45.186;5.720;2022-10-31T00:41:43;99616.41;;;22.60;49.79
52975;BME280;38839;45.186;5.720;2022-10-31T00:44:09;99614.84;;;22.56;49.71
52975;BME280;38839;45.186;5.720;2022-10-31T00:46:34;99608.22;;;22.25;50.36
52975;BME280;38839;45.186;5.720;2022-10-31T00:49:00;99612.44;;;22.49;50.17
52975;BME280;38839;45.186;5.720;2022-10-31T00:51:25;99612.47;;;22.29;50.29
52975;BME280;38839;45.186;5.720;2022-10-31T00:53:51;99610.88;;;22.25;50.37
52975;BME280;38839;45.186;5.720;2022-10-31T00:56:16;99610.25;;;21.98;51.10
52975;BME280;38839;45.186;5.720;2022-10-31T00:58:41;99615.50;;;21.99;51.36
52975;BME280;38839;45.186;5.720;2022-10-31T01:01:07;99608.59;;;22.16;50.80
52975;BME280;38839;45.186;5.720;2022-10-31T01:03:33;99608.09;;;22.28;50.38
52975;BME280;38839;45.186;5.720;2022-10-31T01:06:04;99594.50;;;22.55;49.77
52975;BME280;38839;45.186;5.720;2022-10-31T01:08:30;99607.13;;;22.49;49.54
52975;BME280;38839;45.186;5.720;2022-10-31T01:11:17;99607.19;;;22.68;49.50
52975;BME280;38839;45.186;5.720;2022-10-31T01:13:44;99598.72;;;22.79;49.10
52975;BME280;38839;45.186;5.720;2022-10-31T01:16:13;99611.03;;;22.61;49.40
52975;BME280;38839;45.186;5.720;2022-10-31T01:18:38;99602.16;;;22.81;48.56
52975;BME280;38839;45.186;5.720;2022-10-31T01:21:06;99602.31;;;22.97;48.65
52975;BME280;38839;45.186;5.720;2022-10-31T01:23:33;99606.53;;;22.82;48.73
52975;BME280;38839;45.186;5.720;2022-10-31T01:26:07;99600.72;;;22.93;48.50
52975;BME280;38839;45.186;5.720;2022-10-31T01:28:37;99602.50;;;22.55;49.15
52975;BME280;38839;45.186;5.720;2022-10-31T01:31:06;99594.22;;;22.61;49.11
52975;BME280;38839;45.186;5.720;2022-10-31T01:33:32;99601.25;;;22.62;49.24
52975;BME280;38839;45.186;5.720;2022-10-31T01:35:57;99583.03;;;22.13;50.11
52975;BME280;38839;45.186;5.720;2022-10-31T01:38:23;99585.09;;;22.27;49.94
52975;BME280;38839;45.186;5.720;2022-10-31T01:40:49;99598.38;;;22.47;49.59
52975;BME280;38839;45.186;5.720;2022-10-31T01:43:15;99585.16;;;22.46;49.28
52975;BME280;38839;45.186;5.720;2022-10-31T01:45:44;99583.88;;;22.55;49.34
52975;BME280;38839;45.186;5.720;2022-10-31T01:48:18;99584.38;;;22.63;48.92
52975;BME280;38839;45.186;5.720;2022-10-31T01:50:46;99579.00;;;22.25;49.80
52975;BME280;38839;45.186;5.720;2022-10-31T01:53:15;99577.63;;;22.15;50.28
52975;BME280;38839;45.186;5.720;2022-10-31T01:55:44;99589.22;;;22.14;50.14
52975;BME280;38839;45.186;5.720;2022-10-31T01:58:18;99586.78;;;22.29;50.03
52975;BME280;38839;45.186;5.720;2022-10-31T02:00:46;99582.94;;;22.15;50.36
52975;BME280;38839;45.186;5.720;2022-10-31T02:03:14;99588.25;;;21.94;51.10
52975;BME280;38839;45.186;5.720;2022-10-31T02:05:41;99571.41;;;22.16;50.52
52975;BME280;38839;45.186;5.720;2022-10-31T02:08:12;99570.19;;;22.02;50.60
52975;BME280;38839;45.186;5.720;2022-10-31T02:10:40;99568.03;;;22.33;49.91
52975;BME280;38839;45.186;5.720;2022-10-31T02:13:08;99567.63;;;22.01;50.40
52975;BME280;38839;45.186;5.720;2022-10-31T02:15:35;99569.66;;;21.74;51.54
52975;BME280;38839;45.186;5.720;2022-10-31T02:18:03;99568.75;;;21.75;51.43
52975;BME280;38839;45.186;5.720;2022-10-31T02:33:51;99557.84;;;22.42;49.31
52975;BME280;38839;45.186;5.720;2022-10-31T02:38:55;99553.72;;;21.94;50.60
52975;BME280;38839;45.186;5.720;2022-10-31T02:46:45;99552.66;;;21.98;50.73
52975;BME280;38839;45.186;5.720;2022-10-31T02:49:23;99541.97;;;22.20;49.79
52975;BME280;38839;45.186;5.720;2022-10-31T02:54:23;99555.59;;;22.33;49.52
52975;BME280;38839;45.186;5.720;2022-10-31T02:56:51;99550.66;;;22.44;49.21
52975;BME280;38839;45.186;5.720;2022-10-31T02:59:25;99550.16;;;22.55;49.35
52975;BME280;38839;45.186;5.720;2022-10-31T03:07:35;99548.97;;;22.62;48.98
52975;BME280;38839;45.186;5.720;2022-10-31T03:16:13;99543.59;;;22.43;49.52
52975;BME280;38839;45.186;5.720;2022-10-31T03:21:44;99554.41;;;22.20;49.74
52975;BME280;38839;45.186;5.720;2022-10-31T03:24:12;99548.81;;;22.46;49.13
52975;BME280;38839;45.186;5.720;2022-10-31T03:26:42;99557.66;;;22.26;49.66
52975;BME280;38839;45.186;5.720;2022-10-31T03:29:11;99560.72;;;22.38;49.36
52975;BME280;38839;45.186;5.720;2022-10-31T03:31:46;99559.56;;;22.43;49.28
52975;BME280;38839;45.186;5.720;2022-10-31T03:34:18;99558.56;;;22.46;48.89
52975;BME280;38839;45.186;5.720;2022-10-31T03:36:47;99551.69;;;22.61;48.73
52975;BME280;38839;45.186;5.720;2022-10-31T03:39:15;99565.09;;;22.58;48.90
52975;BME280;38839;45.186;5.720;2022-10-31T03:41:47;99564.88;;;22.23;49.54
52975;BME280;38839;45.186;5.720;2022-10-31T03:44:16;99561.25;;;22.05;50.03
52975;BME280;38839;45.186;5.720;2022-10-31T03:46:43;99551.59;;;22.23;49.68
52975;BME280;38839;45.186;5.720;2022-10-31T03:49:10;99555.06;;;22.04;50.08
52975;BME280;38839;45.186;5.720;2022-10-31T03:54:34;99551.75;;;22.20;49.87
52975;BME280;38839;45.186;5.720;2022-10-31T03:57:16;99556.66;;;21.88;50.64
52975;BME280;38839;45.186;5.720;2022-10-31T03:59:46;99554.88;;;21.68;51.34
52975;BME280;38839;45.186;5.720;2022-10-31T04:02:19;99547.47;;;21.54;51.63
52975;BME280;38839;45.186;5.720;2022-10-31T04:04:48;99561.66;;;21.53;51.64
52975;BME280;38839;45.186;5.720;2022-10-31T04:07:14;99552.28;;;21.66;51.44
52975;BME280;38839;45.186;5.720;2022-10-31T04:09:43;99548.41;;;21.74;51.18
52975;BME280;38839;45.186;5.720;2022-10-31T04:12:12;99549.47;;;21.90;50.77
52975;BME280;38839;45.186;5.720;2022-10-31T04:14:41;99550.69;;;22.03;50.00
52975;BME280;38839;45.186;5.720;2022-10-31T04:17:11;99543.09;;;22.15;49.91
52975;BME280;38839;45.186;5.720;2022-10-31T04:19:37;99547.06;;;22.45;49.17
52975;BME280;38839;45.186;5.720;2022-10-31T04:22:02;99542.44;;;22.30;49.42
52975;BME280;38839;45.186;5.720;2022-10-31T04:24:28;99540.34;;;21.97;50.26
52975;BME280;38839;45.186;5.720;2022-10-31T04:26:53;99537.94;;;21.91;50.53
52975;BME280;38839;45.186;5.720;2022-10-31T04:29:19;99539.31;;;22.00;50.16
52975;BME280;38839;45.186;5.720;2022-10-31T04:31:44;99530.34;;;22.02;50.34
52975;BME280;38839;45.186;5.720;2022-10-31T04:34:10;99527.13;;;22.35;49.52
52975;BME280;38839;45.186;5.720;2022-10-31T04:36:35;99528.50;;;22.25;49.52
52975;BME280;38839;45.186;5.720;2022-10-31T04:39:00;99525.56;;;22.31;49.37
52975;BME280;38839;45.186;5.720;2022-10-31T04:41:26;99527.88;;;22.18;49.42
52975;BME280;38839;45.186;5.720;2022-10-31T04:43:52;99534.75;;;22.03;50.00
52975;BME280;38839;45.186;5.720;2022-10-31T04:46:20;99526.88;;;22.21;49.54
52975;BME280;38839;45.186;5.720;2022-10-31T04:48:46;99538.22;;;22.26;49.29
52975;BME280;38839;45.186;5.720;2022-10-31T04:51:11;99542.53;;;22.47;49.03
52975;BME280;38839;45.186;5.720;2022-10-31T04:53:37;99538.09;;;22.48;48.62
52975;BME280;38839;45.186;5.720;2022-10-31T04:56:02;99543.25;;;22.51;48.69
52975;BME280;38839;45.186;5.720;2022-10-31T04:58:28;99540.53;;;22.53;48.66
52975;BME280;38839;45.186;5.720;2022-10-31T05:00:54;99537.78;;;22.35;49.13
52975;BME280;38839;45.186;5.720;2022-10-31T05:03:20;99533.94;;;22.22;49.47
52975;BME280;38839;45.186;5.720;2022-10-31T05:05:45;99539.63;;;22.13;49.72
52975;BME280;38839;45.186;5.720;2022-10-31T05:08:11;99526.78;;;22.24;49.52
52975;BME280;38839;45.186;5.720;2022-10-31T05:10:36;99525.66;;;22.29;49.55
52975;BME280;38839;45.186;5.720;2022-10-31T05:13:03;99533.81;;;22.25;49.43
52975;BME280;38839;45.186;5.720;2022-10-31T05:15:29;99530.31;;;22.23;49.28
52975;BME280;38839;45.186;5.720;2022-10-31T05:17:55;99539.72;;;22.32;49.31
52975;BME280;38839;45.186;5.720;2022-10-31T05:20:23;99536.13;;;22.52;48.94
52975;BME280;38839;45.186;5.720;2022-10-31T05:22:51;99544.50;;;22.63;48.61
52975;BME280;38839;45.186;5.720;2022-10-31T05:25:18;99541.69;;;22.47;48.80
52975;BME280;38839;45.186;5.720;2022-10-31T05:27:45;99537.88;;;22.53;48.84
52975;BME280;38839;45.186;5.720;2022-10-31T05:30:13;99542.19;;;22.36;49.35
52975;BME280;38839;45.186;5.720;2022-10-31T05:32:40;99537.06;;;22.32;49.24
52975;BME280;38839;45.186;5.720;2022-10-31T05:35:08;99532.81;;;22.07;49.90
52975;BME280;38839;45.186;5.720;2022-10-31T05:37:36;99551.75;;;22.20;49.49
52975;BME280;38839;45.186;5.720;2022-10-31T05:40:03;99553.13;;;22.08;49.86
52975;BME280;38839;45.186;5.720;2022-10-31T05:42:29;99553.34;;;22.03;49.74
52975;BME280;38839;45.186;5.720;2022-10-31T05:44:54;99553.41;;;22.02;49.87
52975;BME280;38839;45.186;5.720;2022-10-31T05:47:20;99547.09;;;22.04;49.72
52975;BME280;38839;45.186;5.720;2022-10-31T05:49:45;99552.00;;;22.14;49.38
52975;BME280;38839;45.186;5.720;2022-10-31T05:52:11;99547.09;;;22.04;49.36
52975;BME280;38839;45.186;5.720;2022-10-31T05:54:36;99536.88;;;21.95;49.72
52975;BME280;38839;45.186;5.720;2022-10-31T05:57:01;99538.28;;;21.83;49.99
52975;BME280;38839;45.186;5.720;2022-10-31T05:59:27;99544.31;;;21.66;50.23
52975;BME280;38839;45.186;5.720;2022-10-31T06:01:53;99544.63;;;21.59;50.40
52975;BME280;38839;45.186;5.720;2022-10-31T06:04:18;99552.56;;;21.37;50.78
52975;BME280;38839;45.186;5.720;2022-10-31T06:06:44;99553.88;;;21.26;51.27
52975;BME280;38839;45.186;5.720;2022-10-31T06:09:09;99557.34;;;21.06;51.88
52975;BME280;38839;45.186;5.720;2022-10-31T06:11:35;99550.63;;;21.20;51.64
52975;BME280;38839;45.186;5.720;2022-10-31T06:14:00;99550.72;;;21.39;51.13
52975;BME280;38839;45.186;5.720;2022-10-31T06:16:26;99549.34;;;21.52;50.65
52975;BME280;38839;45.186;5.720;2022-10-31T06:18:51;99556.34;;;20.87;52.33
52975;BME280;38839;45.186;5.720;2022-10-31T06:21:17;99559.69;;;21.14;51.65
52975;BME280;38839;45.186;5.720;2022-10-31T06:23:42;99556.38;;;21.09;51.93
52975;BME280;38839;45.186;5.720;2022-10-31T06:26:09;99558.56;;;21.42;50.84
52975;BME280;38839;45.186;5.720;2022-10-31T06:28:37;99565.75;;;21.40;50.74
52975;BME280;38839;45.186;5.720;2022-10-31T06:31:03;99565.84;;;21.37;51.02
52975;BME280;38839;45.186;5.720;2022-10-31T06:33:29;99573.63;;;20.97;52.06
52975;BME280;38839;45.186;5.720;2022-10-31T06:35:54;99572.59;;;21.23;51.36
52975;BME280;38839;45.186;5.720;2022-10-31T06:38:20;99573.19;;;21.30;50.95
52975;BME280;38839;45.186;5.720;2022-10-31T06:40:45;99572.13;;;21.12;51.90
52975;BME280;38839;45.186;5.720;2022-10-31T06:43:11;99569.16;;;20.50;53.57
52975;BME280;38839;45.186;5.720;2022-10-31T06:45:37;99560.06;;;20.34;54.03
52975;BME280;38839;45.186;5.720;2022-10-31T06:48:03;99568.00;;;20.34;53.95
52975;BME280;38839;45.186;5.720;2022-10-31T06:50:29;99561.91;;;20.56;53.41
52975;BME280;38839;45.186;5.720;2022-10-31T06:52:56;99565.19;;;21.09;51.88
52975;BME280;38839;45.186;5.720;2022-10-31T06:55:23;99566.53;;;20.98;51.73
52975;BME280;38839;45.186;5.720;2022-10-31T06:57:53;99563.63;;;21.26;51.05
52975;BME280;38839;45.186;5.720;2022-10-31T07:00:19;99554.63;;;21.30;50.59
52975;BME280;38839;45.186;5.720;2022-10-31T07:02:56;99564.13;;;21.14;51.35
52975;BME280;38839;45.186;5.720;2022-10-31T07:05:22;99547.97;;;21.42;50.68
52975;BME280;38839;45.186;5.720;2022-10-31T07:07:52;99548.72;;;21.23;50.90
52975;BME280;38839;45.186;5.720;2022-10-31T07:10:17;99549.38;;;21.28;50.51
52975;BME280;38839;45.186;5.720;2022-10-31T07:12:43;99547.56;;;21.08;51.35
52975;BME280;38839;45.186;5.720;2022-10-31T07:15:08;99541.78;;;20.97;51.59
52975;BME280;38839;45.186;5.720;2022-10-31T07:17:34;99536.34;;;21.22;51.01
52975;BME280;38839;45.186;5.720;2022-10-31T07:19:59;99538.75;;;20.84;51.81
52975;BME280;38839;45.186;5.720;2022-10-31T07:22:25;99542.00;;;20.69;52.18
52975;BME280;38839;45.186;5.720;2022-10-31T07:24:57;99534.41;;;20.60;52.37
52975;BME280;38839;45.186;5.720;2022-10-31T07:27:22;99539.66;;;20.83;52.07
52975;BME280;38839;45.186;5.720;2022-10-31T07:29:48;99544.22;;;20.33;53.39
52975;BME280;38839;45.186;5.720;2022-10-31T07:32:13;99540.72;;;20.56;53.04
52975;BME280;38839;45.186;5.720;2022-10-31T07:34:39;99548.06;;;20.73;52.80
52975;BME280;38839;45.186;5.720;2022-10-31T07:37:04;99535.97;;;20.87;52.51
52975;BME280;38839;45.186;5.720;2022-10-31T07:39:29;99526.78;;;21.18;51.43
52975;BME280;38839;45.186;5.720;2022-10-31T07:41:58;99531.44;;;21.13;51.68
52975;BME280;38839;45.186;5.720;2022-10-31T07:44:23;99539.09;;;20.99;52.13
52975;BME280;38839;45.186;5.720;2022-10-31T07:46:49;99545.25;;;20.99;51.93
52975;BME280;38839;45.186;5.720;2022-10-31T07:49:14;99538.84;;;21.05;52.03
52975;BME280;38839;45.186;5.720;2022-10-31T07:51:39;99541.41;;;21.28;51.45
52975;BME280;38839;45.186;5.720;2022-10-31T07:54:05;99535.59;;;21.63;50.79
52975;BME280;38839;45.186;5.720;2022-10-31T07:56:30;99536.72;;;21.78;50.37
52975;BME280;38839;45.186;5.720;2022-10-31T07:58:56;99538.59;;;21.96;49.77
52975;BME280;38839;45.186;5.720;2022-10-31T08:01:22;99532.19;;;22.21;49.61
52975;BME280;38839;45.186;5.720;2022-10-31T08:03:47;99529.38;;;22.25;49.33
52975;BME280;38839;45.186;5.720;2022-10-31T08:06:12;99527.31;;;21.91;49.74
52975;BME280;38839;45.186;5.720;2022-10-31T08:08:38;99535.41;;;20.56;53.34
52975;BME280;38839;45.186;5.720;2022-10-31T08:11:03;99539.72;;;20.60;53.96
52975;BME280;38839;45.186;5.720;2022-10-31T08:13:29;99537.72;;;20.88;53.03
52975;BME280;38839;45.186;5.720;2022-10-31T08:15:54;99532.28;;;21.36;51.91
52975;BME280;38839;45.186;5.720;2022-10-31T08:18:20;99528.34;;;21.24;51.64
52975;BME280;38839;45.186;5.720;2022-10-31T08:20:49;99531.56;;;20.88;53.09
52975;BME280;38839;45.186;5.720;2022-10-31T08:23:14;99537.69;;;21.33;51.75
52975;BME280;38839;45.186;5.720;2022-10-31T08:25:41;99531.75;;;22.11;49.94
52975;BME280;38839;45.186;5.720;2022-10-31T08:28:09;99528.97;;;21.73;50.76
52975;BME280;38839;45.186;5.720;2022-10-31T08:30:36;99523.31;;;22.22;49.97
52975;BME280;38839;45.186;5.720;2022-10-31T08:33:16;99517.47;;;22.34;49.66
52975;BME280;38839;45.186;5.720;2022-10-31T08:35:45;99502.44;;;22.13;50.14
52975;BME280;38839;45.186;5.720;2022-10-31T08:38:11;99504.53;;;22.83;48.69
52975;BME280;38839;45.186;5.720;2022-10-31T08:40:38;99511.13;;;23.13;47.79
52975;BME280;38839;45.186;5.720;2022-10-31T08:43:14;99509.13;;;23.53;46.90
52975;BME280;38839;45.186;5.720;2022-10-31T08:45:41;99503.09;;;23.49;46.80
52975;BME280;38839;45.186;5.720;2022-10-31T08:48:12;99505.38;;;23.74;46.43
52975;BME280;38839;45.186;5.720;2022-10-31T08:50:39;99505.22;;;23.95;45.75
52975;BME280;38839;45.186;5.720;2022-10-31T08:53:10;99502.31;;;23.99;46.02
52975;BME280;38839;45.186;5.720;2022-10-31T08:55:38;99505.53;;;24.22;45.57
52975;BME280;38839;45.186;5.720;2022-10-31T08:58:07;99502.13;;;24.36;45.24
52975;BME280;38839;45.186;5.720;2022-10-31T09:00:34;99503.94;;;24.35;45.41
52975;BME280;38839;45.186;5.720;2022-10-31T09:03:06;99507.00;;;24.61;44.90
52975;BME280;38839;45.186;5.720;2022-10-31T09:05:32;99497.78;;;24.50;44.72
52975;BME280;38839;45.186;5.720;2022-10-31T09:08:00;99494.19;;;24.83;44.51
52975;BME280;38839;45.186;5.720;2022-10-31T09:10:26;99497.78;;;25.14;43.75
52975;BME280;38839;45.186;5.720;2022-10-31T09:13:06;99482.81;;;25.27;43.35
52975;BME280;38839;45.186;5.720;2022-10-31T09:15:33;99481.59;;;25.17;43.54
52975;BME280;38839;45.186;5.720;2022-10-31T09:17:59;99479.13;;;24.98;43.84
52975;BME280;38839;45.186;5.720;2022-10-31T09:20:26;99481.69;;;25.32;43.14
52975;BME280;38839;45.186;5.720;2022-10-31T09:22:59;99470.41;;;25.71;42.17
52975;BME280;38839;45.186;5.720;2022-10-31T09:25:25;99482.75;;;25.88;42.03
52975;BME280;38839;45.186;5.720;2022-10-31T09:27:56;99485.09;;;26.08;41.50
52975;BME280;38839;45.186;5.720;2022-10-31T09:30:21;99488.91;;;26.04;41.84
52975;BME280;38839;45.186;5.720;2022-10-31T09:32:46;99483.16;;;26.10;41.61
52975;BME280;38839;45.186;5.720;2022-10-31T09:35:15;99485.28;;;26.20;41.68
52975;BME280;38839;45.186;5.720;2022-10-31T09:37:41;99482.03;;;26.00;41.49
52975;BME280;38839;45.186;5.720;2022-10-31T09:40:06;99480.69;;;25.93;41.62
52975;BME280;38839;45.186;5.720;2022-10-31T09:48:24;99481.38;;;26.25;41.15
52975;BME280;38839;45.186;5.720;2022-10-31T09:51:00;99471.31;;;26.29;41.11
52975;BME280;38839;45.186;5.720;2022-10-31T09:56:14;99475.75;;;26.01;41.33
52975;BME280;38839;45.186;5.720;2022-10-31T09:58:47;99471.91;;;25.91;41.30
52975;BME280;38839;45.186;5.720;2022-10-31T10:01:55;99472.13;;;25.58;42.21
52975;BME280;38839;45.186;5.720;2022-10-31T10:07:09;99469.47;;;24.96;43.37
52975;BME280;38839;45.186;5.720;2022-10-31T10:09:37;99470.53;;;24.93;42.86
52975;BME280;38839;45.186;5.720;2022-10-31T10:25:53;99456.31;;;25.08;43.47
52975;BME280;38839;45.186;5.720;2022-10-31T10:28:26;99459.50;;;24.83;44.14
52975;BME280;38839;45.186;5.720;2022-10-31T10:31:01;99444.22;;;25.17;43.06
52975;BME280;38839;45.186;5.720;2022-10-31T10:33:33;99444.09;;;25.35;42.48
52975;BME280;38839;45.186;5.720;2022-10-31T10:36:13;99442.03;;;25.40;42.82
52975;BME280;38839;45.186;5.720;2022-10-31T10:38:54;99442.22;;;25.51;42.09
52975;BME280;38839;45.186;5.720;2022-10-31T10:41:21;99439.94;;;25.59;41.44
52975;BME280;38839;45.186;5.720;2022-10-31T10:43:50;99443.75;;;24.95;41.12
52975;BME280;38839;45.186;5.720;2022-10-31T10:49:19;99438.75;;;25.35;41.55
52975;BME280;38839;45.186;5.720;2022-10-31T10:57:58;99429.13;;;25.16;40.69
52975;BME280;38839;45.186;5.720;2022-10-31T11:00:45;99431.22;;;25.27;40.65
52975;BME280;38839;45.186;5.720;2022-10-31T11:03:13;99438.41;;;24.95;40.82
52975;BME280;38839;45.186;5.720;2022-10-31T11:08:06;99425.84;;;25.86;39.14
52975;BME280;38839;45.186;5.720;2022-10-31T11:10:32;99430.22;;;25.44;39.96
52975;BME280;38839;45.186;5.720;2022-10-31T11:16:06;99414.38;;;25.69;39.37
52975;BME280;38839;45.186;5.720;2022-10-31T11:18:37;99409.41;;;25.49;40.31
52975;BME280;38839;45.186;5.720;2022-10-31T11:21:03;99412.09;;;25.78;39.83
52975;BME280;38839;45.186;5.720;2022-10-31T11:23:30;99404.06;;;25.63;39.96
52975;BME280;38839;45.186;5.720;2022-10-31T11:25:59;99407.16;;;26.00;39.75
52975;BME280;38839;45.186;5.720;2022-10-31T11:28:30;99398.78;;;25.92;39.56
52975;BME280;38839;45.186;5.720;2022-10-31T11:30:58;99397.84;;;25.93;39.92
52975;BME280;38839;45.186;5.720;2022-10-31T11:33:31;99386.03;;;26.24;39.12
52975;BME280;38839;45.186;5.720;2022-10-31T11:35:58;99376.03;;;25.56;40.10
52975;BME280;38839;45.186;5.720;2022-10-31T11:38:45;99367.66;;;25.91;39.76
52975;BME280;38839;45.186;5.720;2022-10-31T11:41:32;99365.91;;;26.04;39.72
52975;BME280;38839;45.186;5.720;2022-10-31T11:44:06;99361.44;;;26.46;38.97
52975;BME280;38839;45.186;5.720;2022-10-31T11:46:49;99357.25;;;26.42;38.73
52975;BME280;38839;45.186;5.720;2022-10-31T11:49:35;99346.88;;;26.38;38.88
52975;BME280;38839;45.186;5.720;2022-10-31T11:52:07;99337.03;;;25.68;40.00
52975;BME280;38839;45.186;5.720;2022-10-31T11:54:45;99337.97;;;25.96;39.96
52975;BME280;38839;45.186;5.720;2022-10-31T11:57:42;99341.97;;;26.44;39.24
52975;BME280;38839;45.186;5.720;2022-10-31T12:02:47;99320.47;;;26.04;39.74
52975;BME280;38839;45.186;5.720;2022-10-31T12:05:23;99315.41;;;26.41;39.49
52975;BME280;38839;45.186;5.720;2022-10-31T12:07:52;99304.31;;;26.20;39.91
52975;BME280;38839;45.186;5.720;2022-10-31T12:10:21;99300.28;;;26.27;39.69
52975;BME280;38839;45.186;5.720;2022-10-31T12:15:57;99293.50;;;26.22;39.79
52975;BME280;38839;45.186;5.720;2022-10-31T12:18:43;99292.75;;;26.20;39.19
52975;BME280;38839;45.186;5.720;2022-10-31T12:21:59;99292.13;;;26.02;40.36
52975;BME280;38839;45.186;5.720;2022-10-31T12:24:37;99285.00;;;25.59;41.67
52975;BME280;38839;45.186;5.720;2022-10-31T12:30:14;99271.75;;;26.14;40.49
52975;BME280;38839;45.186;5.720;2022-10-31T12:35:42;99259.19;;;26.01;40.63
52975;BME280;38839;45.186;5.720;2022-10-31T12:41:07;99241.06;;;26.46;40.13
52975;BME280;38839;45.186;5.720;2022-10-31T12:43:58;99250.84;;;27.26;38.54
52975;BME280;38839;45.186;5.720;2022-10-31T12:52:03;99234.94;;;27.36;39.17
52975;BME280;38839;45.186;5.720;2022-10-31T12:57:29;99222.41;;;27.49;39.14
52975;BME280;38839;45.186;5.720;2022-10-31T13:00:12;99224.03;;;27.76;38.86
52975;BME280;38839;45.186;5.720;2022-10-31T13:02:58;99210.72;;;27.87;38.23
52975;BME280;38839;45.186;5.720;2022-10-31T13:08:50;99203.69;;;28.21;38.42
52975;BME280;38839;45.186;5.720;2022-10-31T13:11:17;99197.00;;;27.92;38.88
52975;BME280;38839;45.186;5.720;2022-10-31T13:16:20;99193.91;;;28.44;37.97
52975;BME280;38839;45.186;5.720;2022-10-31T13:19:27;99195.72;;;28.44;37.68
52975;BME280;38839;45.186;5.720;2022-10-31T13:22:08;99199.72;;;28.38;37.90
52975;BME280;38839;45.186;5.720;2022-10-31T13:24:56;99181.84;;;28.15;38.63
52975;BME280;38839;45.186;5.720;2022-10-31T13:30:51;99180.19;;;28.01;38.62
52975;BME280;38839;45.186;5.720;2022-10-31T13:33:22;99191.84;;;27.52;39.04
52975;BME280;38839;45.186;5.720;2022-10-31T13:36:37;99184.72;;;27.63;39.12
52975;BME280;38839;45.186;5.720;2022-10-31T13:38:46;99179.13;;;27.29;39.73
52975;BME280;38839;45.186;5.720;2022-10-31T13:41:37;99189.53;;;27.71;38.97
52975;BME280;38839;45.186;5.720;2022-10-31T13:44:24;99191.22;;;28.09;38.34
52975;BME280;38839;45.186;5.720;2022-10-31T13:46:56;99197.09;;;27.90;38.24
52975;BME280;38839;45.186;5.720;2022-10-31T13:54:47;99176.03;;;28.32;37.45
52975;BME280;38839;45.186;5.720;2022-10-31T13:57:19;99181.47;;;28.43;37.36
52975;BME280;38839;45.186;5.720;2022-10-31T13:59:59;99164.19;;;28.59;37.20
52975;BME280;38839;45.186;5.720;2022-10-31T14:02:29;99174.53;;;28.17;38.30
52975;BME280;38839;45.186;5.720;2022-10-31T14:05:03;99170.84;;;28.88;36.73
52975;BME280;38839;45.186;5.720;2022-10-31T14:07:30;99163.16;;;28.37;37.15
52975;BME280;38839;45.186;5.720;2022-10-31T14:10:01;99181.69;;;28.76;37.31
52975;BME280;38839;45.186;5.720;2022-10-31T14:15:20;99172.34;;;28.11;37.53
52975;BME280;38839;45.186;5.720;2022-10-31T14:22:40;99165.66;;;28.16;37.62
52975;BME280;38839;45.186;5.720;2022-10-31T14:27:56;99176.09;;;28.43;36.60
52975;BME280;38839;45.186;5.720;2022-10-31T14:30:24;99188.25;;;28.36;36.85
52975;BME280;38839;45.186;5.720;2022-10-31T14:32:56;99166.94;;;27.62;38.29
52975;BME280;38839;45.186;5.720;2022-10-31T14:35:26;99165.63;;;27.18;39.14
52975;BME280;38839;45.186;5.720;2022-10-31T14:38:12;99175.78;;;27.76;37.90
52975;BME280;38839;45.186;5.720;2022-10-31T14:43:43;99176.59;;;27.89;37.78
52975;BME280;38839;45.186;5.720;2022-10-31T14:49:18;99162.59;;;27.36;38.54
52975;BME280;38839;45.186;5.720;2022-10-31T14:51:48;99154.31;;;27.88;37.64
52975;BME280;38839;45.186;5.720;2022-10-31T14:54:19;99165.72;;;27.42;38.69
52975;BME280;38839;45.186;5.720;2022-10-31T14:56:53;99151.41;;;27.79;38.27
52975;BME280;38839;45.186;5.720;2022-10-31T14:59:23;99159.63;;;27.64;38.15
52975;BME280;38839;45.186;5.720;2022-10-31T15:02:06;99152.75;;;27.97;37.62
52975;BME280;38839;45.186;5.720;2022-10-31T15:04:34;99149.59;;;26.93;39.17
52975;BME280;38839;45.186;5.720;2022-10-31T15:07:20;99162.41;;;27.39;38.64
52975;BME280;38839;45.186;5.720;2022-10-31T15:12:29;99152.41;;;27.78;37.76
52975;BME280;38839;45.186;5.720;2022-10-31T15:14:55;99163.72;;;27.94;37.71
52975;BME280;38839;45.186;5.720;2022-10-31T15:17:23;99155.56;;;28.31;36.93
52975;BME280;38839;45.186;5.720;2022-10-31T15:19:49;99151.88;;;27.73;37.68
52975;BME280;38839;45.186;5.720;2022-10-31T15:22:17;99152.50;;;27.52;38.34
52975;BME280;38839;45.186;5.720;2022-10-31T15:24:44;99150.84;;;27.38;38.49
52975;BME280;38839;45.186;5.720;2022-10-31T15:27:17;99157.97;;;27.75;38.17
52975;BME280;38839;45.186;5.720;2022-10-31T15:29:50;99133.00;;;27.50;38.71